createdAt,value
2022-11-12T01:03:36.281Z,28.35
2022-11-12T01:06:23.227Z,24.63
2022-11-12T01:09:09.578Z,26.45
2022-11-12T01:11:55.852Z,30.30
2022-11-12T01:14:42.719Z,23.83
2022-11-12T01:17:31.022Z,17.33
2022-11-12T01:20:17.453Z,16.92
2022-11-12T01:23:03.669Z,15.93
2022-11-12T01:25:49.755Z,17.45
2022-11-12T01:28:36.505Z,19.83
2022-11-12T01:31:42.939Z,20.70
2022-11-12T01:34:29.082Z,21.25
2022-11-12T01:37:16.041Z,19.67
2022-11-12T01:40:02.616Z,17.27
2022-11-12T01:42:53.461Z,13.32
2022-11-12T01:45:43.890Z,17.63
2022-11-12T01:48:41.050Z,15.82
2022-11-12T01:51:32.677Z,17.13
2022-11-12T01:54:20.363Z,12.75
2022-11-12T01:57:07.617Z,13.43
2022-11-12T02:00:00.965Z,16.15
2022-11-12T02:02:52.939Z,17.52
2022-11-12T02:05:41.217Z,13.48
2022-11-12T02:08:28.952Z,22.67
2022-11-12T02:11:16.730Z,15.07
2022-11-12T02:14:03.137Z,17.08
2022-11-12T02:16:51.268Z,12.50
2022-11-12T02:19:38.813Z,11.27
2022-11-12T02:22:25.312Z,11.15
2022-11-12T02:25:16.755Z,12.85
2022-11-12T02:28:05.542Z,12.65
2022-11-12T02:30:51.876Z,10.88
2022-11-12T02:33:38.555Z,8.73
2022-11-12T02:36:25.263Z,7.22
2022-11-12T02:39:11.112Z,7.70
2022-11-12T02:41:57.677Z,9.15
2022-11-12T02:44:45.275Z,11.18
2022-11-12T02:47:34.996Z,10.93
2022-11-12T02:50:21.874Z,10.43
2022-11-12T02:53:08.090Z,11.65
2022-11-12T02:55:54.905Z,15.23
2022-11-12T02:58:41.796Z,12.57
2022-11-12T03:01:27.813Z,14.05
2022-11-12T03:04:14.047Z,13.18
2022-11-12T03:07:02.443Z,13.63
2022-11-12T03:09:48.840Z,15.13
2022-11-12T03:12:35.124Z,16.75
2022-11-12T03:15:22.175Z,14.50
2022-11-12T03:18:08.863Z,14.43
2022-11-12T03:20:54.936Z,13.35
2022-11-12T03:23:41.176Z,10.60
2022-11-12T03:26:29.534Z,10.65
2022-11-12T03:29:19.356Z,10.85
2022-11-12T03:32:05.375Z,11.75
2022-11-12T03:34:55.380Z,14.00
2022-11-12T03:40:34.294Z,13.32
2022-11-12T03:43:20.787Z,13.75
2022-11-12T03:46:07.518Z,12.60
2022-11-12T03:48:54.303Z,13.70
2022-11-12T03:51:40.639Z,18.10
2022-11-12T03:54:27.111Z,10.80
2022-11-12T03:57:14.523Z,10.73
2022-11-12T04:00:03.862Z,13.15
2022-11-12T04:02:50.506Z,12.27
2022-11-12T04:05:54.671Z,14.88
2022-11-12T04:08:42.875Z,17.33
2022-11-12T04:11:28.834Z,16.48
2022-11-12T04:14:15.262Z,17.02
2022-11-12T04:17:23.885Z,22.52
2022-11-12T04:20:28.944Z,20.30
2022-11-12T04:23:15.132Z,19.30
2022-11-12T04:26:19.440Z,20.13
2022-11-12T04:29:24.818Z,22.35
2022-11-12T04:32:11.732Z,19.85
2022-11-12T04:34:58.214Z,23.95
2022-11-12T04:37:47.891Z,22.73
2022-11-12T04:40:52.977Z,20.03
2022-11-12T04:43:57.992Z,18.15
2022-11-12T04:46:44.502Z,18.33
2022-11-12T04:49:33.801Z,23.33
2022-11-12T04:52:22.471Z,17.48
2022-11-12T04:55:09.223Z,19.92
2022-11-12T04:58:00.369Z,16.70
2022-11-12T05:00:48.377Z,20.05
2022-11-12T05:03:28.296Z,23.63
2022-11-12T05:06:33.259Z,20.73
2022-11-12T05:09:20.166Z,17.63
2022-11-12T05:12:07.774Z,18.77
2022-11-12T05:14:54.041Z,16.55
2022-11-12T05:17:44.318Z,14.50
2022-11-12T05:20:32.214Z,16.17
2022-11-12T05:23:22.118Z,14.68
2022-11-12T05:26:08.037Z,15.32
2022-11-12T05:28:54.035Z,14.52
2022-11-12T05:31:40.187Z,20.40
2022-11-12T05:34:26.885Z,17.00
2022-11-12T05:37:13.599Z,15.57
2022-11-12T05:40:01.238Z,13.00
2022-11-12T05:42:48.149Z,14.00
2022-11-12T05:45:34.246Z,21.25
2022-11-12T05:48:24.353Z,15.88
2022-11-12T05:51:13.547Z,14.60
2022-11-12T05:54:02.453Z,17.23
2022-11-12T05:56:48.788Z,16.13
2022-11-12T05:59:34.796Z,16.90
2022-11-12T06:02:21.218Z,18.33
2022-11-12T06:05:08.283Z,18.45
2022-11-12T06:07:56.668Z,18.17
2022-11-12T06:10:45.918Z,17.65
2022-11-12T06:13:33.510Z,18.77
2022-11-12T06:16:21.899Z,19.30
2022-11-12T06:19:08.343Z,20.80
2022-11-12T06:21:54.723Z,16.70
2022-11-12T06:24:41.034Z,20.92
2022-11-12T06:27:28.529Z,18.25
2022-11-12T06:30:14.780Z,16.10
2022-11-12T06:33:02.297Z,20.75
2022-11-12T06:35:51.563Z,19.60
2022-11-12T06:38:39.366Z,16.35
2022-11-12T06:41:25.591Z,18.80
2022-11-12T06:44:20.766Z,23.45
2022-11-12T06:47:08.852Z,19.55
2022-11-12T06:49:55.680Z,20.55
2022-11-12T06:52:41.974Z,20.42
2022-11-12T06:55:28.644Z,21.58
2022-11-12T06:58:15.300Z,22.73
2022-11-12T07:01:08.518Z,22.90
2022-11-12T07:04:01.595Z,22.05
2022-11-12T07:06:48.576Z,21.25
2022-11-12T07:09:35.558Z,20.77
2022-11-12T07:12:21.505Z,15.10
2022-11-12T07:15:07.748Z,17.08
2022-11-12T07:18:04.879Z,19.73
2022-11-12T07:20:52.434Z,17.55
2022-11-12T07:23:39.297Z,20.20
2022-11-12T07:26:27.748Z,16.52
2022-11-12T07:29:29.950Z,19.88
2022-11-12T07:32:17.945Z,19.50
2022-11-12T07:35:04.046Z,19.17
2022-11-12T07:37:49.947Z,22.60
2022-11-12T07:40:35.951Z,17.88
2022-11-12T07:43:22.735Z,18.35
2022-11-12T07:46:12.222Z,27.20
2022-11-12T07:48:58.443Z,18.50
2022-11-12T07:51:47.205Z,20.63
2022-11-12T07:54:34.374Z,22.90
2022-11-12T07:57:25.095Z,21.27
2022-11-12T08:00:13.131Z,22.40
2022-11-12T08:03:04.952Z,21.98
2022-11-12T08:05:52.403Z,19.85
2022-11-12T08:08:38.680Z,20.02
2022-11-12T08:11:25.461Z,21.00
2022-11-12T08:14:12.067Z,21.85
2022-11-12T08:16:58.952Z,20.58
2022-11-12T08:19:45.097Z,20.73
2022-11-12T08:22:33.355Z,24.30
2022-11-12T08:25:23.800Z,19.88
2022-11-12T08:30:57.289Z,24.08
2022-11-12T08:33:44.435Z,24.83
2022-11-12T08:36:32.304Z,25.27
2022-11-12T08:39:18.686Z,22.75
2022-11-12T08:42:05.903Z,28.73
2022-11-12T08:44:55.351Z,27.17
2022-11-12T08:47:42.624Z,24.40
2022-11-12T08:50:32.395Z,28.67
2022-11-12T08:53:18.798Z,24.13
2022-11-12T08:56:05.249Z,23.92
2022-11-12T08:58:54.350Z,24.98
2022-11-12T09:01:40.577Z,23.77
2022-11-12T09:04:27.382Z,26.25
2022-11-12T09:07:43.245Z,22.60
2022-11-12T09:10:19.640Z,20.58
2022-11-12T09:13:06.357Z,22.27
2022-11-12T09:15:53.165Z,23.42
2022-11-12T09:18:39.550Z,18.95
2022-11-12T09:21:25.564Z,16.73
2022-11-12T09:24:11.979Z,17.55
2022-11-12T09:26:58.163Z,18.85
2022-11-12T09:29:44.300Z,17.65
2022-11-12T09:32:32.318Z,17.75
2022-11-12T09:35:18.709Z,12.30
2022-11-12T09:38:04.976Z,16.83
2022-11-12T09:41:02.133Z,15.32
2022-11-12T09:44:01.548Z,14.55
2022-11-12T09:47:05.528Z,13.57
2022-11-12T09:50:01.370Z,15.55
2022-11-12T09:52:49.999Z,15.77
2022-11-12T09:55:41.864Z,13.48
2022-11-12T09:58:28.489Z,12.32
2022-11-12T10:01:17.197Z,12.25
2022-11-12T10:04:10.864Z,12.23
2022-11-12T10:07:23.243Z,17.15
2022-11-12T10:10:09.762Z,15.30
2022-11-12T10:13:06.760Z,13.00
2022-11-12T10:16:17.638Z,12.20
2022-11-12T10:19:19.172Z,16.35
2022-11-12T10:22:14.748Z,11.20
2022-11-12T10:25:11.730Z,15.32
2022-11-12T10:27:59.112Z,11.88
2022-11-12T10:30:48.944Z,12.00
2022-11-12T10:33:35.510Z,12.05
2022-11-12T10:36:27.714Z,13.48
2022-11-12T10:39:32.675Z,10.73
2022-11-12T10:42:20.556Z,8.32
2022-11-12T10:45:20.443Z,10.18
2022-11-12T10:48:25.900Z,10.57
2022-11-12T10:51:26.315Z,14.98
2022-11-12T10:54:18.897Z,10.30
2022-11-12T10:57:26.711Z,11.20
2022-11-12T11:00:14.809Z,11.65
2022-11-12T11:03:03.056Z,12.02
2022-11-12T11:05:54.590Z,16.80
2022-11-12T11:08:42.005Z,8.23
2022-11-12T11:11:31.743Z,8.52
2022-11-12T11:14:27.721Z,9.87
2022-11-12T11:17:18.851Z,8.27
2022-11-12T11:20:17.391Z,10.23
2022-11-12T11:23:22.987Z,8.77
2022-11-12T11:26:31.810Z,10.98
2022-11-12T11:29:28.540Z,10.55
2022-11-12T11:32:17.828Z,10.93
2022-11-12T11:35:09.147Z,8.77
2022-11-12T11:38:06.608Z,15.35
2022-11-12T11:41:03.492Z,12.23
2022-11-12T11:43:56.641Z,14.20
2022-11-12T11:47:06.326Z,11.65
2022-11-12T11:50:12.934Z,8.32
2022-11-12T11:53:18.319Z,9.85
2022-11-12T11:56:10.614Z,11.55
2022-11-12T11:59:03.284Z,8.88
2022-11-12T12:01:58.922Z,12.82
2022-11-12T12:04:48.458Z,8.27
2022-11-12T12:07:54.006Z,12.77
2022-11-12T12:11:06.874Z,8.10
2022-11-12T12:14:08.442Z,9.75
2022-11-12T12:17:09.529Z,10.43
2022-11-12T12:20:14.022Z,10.40
2022-11-12T12:23:12.468Z,11.55
2022-11-12T12:26:01.233Z,8.30
2022-11-12T12:28:55.364Z,13.90
2022-11-12T12:31:45.994Z,11.32
2022-11-12T12:37:33.076Z,10.10
2022-11-12T12:40:20.061Z,12.20
2022-11-12T12:43:30.965Z,9.77
2022-11-12T12:46:21.587Z,12.02
2022-11-12T12:49:08.695Z,12.23
2022-11-12T12:51:56.201Z,9.02
2022-11-12T12:54:42.440Z,8.73
2022-11-12T12:57:35.237Z,9.45
2022-11-12T13:00:38.129Z,10.90
2022-11-12T13:03:46.293Z,10.23
2022-11-12T13:06:35.692Z,8.43
2022-11-12T13:09:25.628Z,9.27
2022-11-12T13:12:11.518Z,9.07
2022-11-12T13:15:13.557Z,8.48
2022-11-12T13:18:02.323Z,9.10
2022-11-12T13:21:12.117Z,13.43
2022-11-12T13:24:09.443Z,9.63
2022-11-12T13:26:58.434Z,27.77
2022-11-12T13:29:48.475Z,11.23
2022-11-12T13:32:39.397Z,8.13
2022-11-12T13:35:25.701Z,6.55
2022-11-12T13:38:18.009Z,8.10
2022-11-12T13:41:18.801Z,9.00
2022-11-12T13:44:07.980Z,8.57
2022-11-12T13:46:58.336Z,10.07
2022-11-12T13:49:45.610Z,8.40
2022-11-12T13:52:35.706Z,10.77
2022-11-12T13:55:23.013Z,9.63
2022-11-12T13:58:20.977Z,8.82
2022-11-12T14:01:08.302Z,8.75
2022-11-12T14:03:57.126Z,9.38
2022-11-12T14:06:53.461Z,8.45
2022-11-12T14:09:52.482Z,8.95
2022-11-12T14:12:58.039Z,12.15
2022-11-12T14:16:03.168Z,8.45
2022-11-12T14:18:55.999Z,14.07
2022-11-12T14:21:43.318Z,9.43
2022-11-12T14:24:32.234Z,7.30
2022-11-12T14:27:24.557Z,8.63
2022-11-12T14:30:33.438Z,10.02
2022-11-12T14:33:21.438Z,10.60
2022-11-12T14:36:11.517Z,9.82
2022-11-12T14:38:59.187Z,7.57
2022-11-12T14:41:52.009Z,7.50
2022-11-12T14:44:38.918Z,10.82
2022-11-12T14:47:25.814Z,8.43
2022-11-12T14:50:17.995Z,7.22
2022-11-12T14:53:24.705Z,8.93
2022-11-12T14:56:14.823Z,12.05
2022-11-12T14:59:02.776Z,9.55
2022-11-12T15:05:19.478Z,9.85
2022-11-12T15:08:12.936Z,13.45
2022-11-12T15:11:18.749Z,9.35
2022-11-12T15:14:07.404Z,7.97
2022-11-12T15:16:54.121Z,10.50
2022-11-12T15:19:42.810Z,10.20
2022-11-12T15:22:32.482Z,14.90
2022-11-12T15:25:23.414Z,8.60
2022-11-12T15:28:14.267Z,9.90
2022-11-12T15:31:17.810Z,7.95
2022-11-12T15:34:23.162Z,11.13
2022-11-12T15:37:14.333Z,12.20
2022-11-12T15:40:02.891Z,8.32
2022-11-12T15:42:49.216Z,13.82
2022-11-12T15:45:36.137Z,13.55
2022-11-12T15:48:22.832Z,10.75
2022-11-12T15:51:14.296Z,9.60
2022-11-12T15:54:02.108Z,12.45
2022-11-12T15:56:48.767Z,11.40
2022-11-12T15:59:36.372Z,10.38
2022-11-12T16:02:22.866Z,17.65
2022-11-12T16:05:14.072Z,9.77
2022-11-12T16:10:58.961Z,11.85
2022-11-12T16:13:45.344Z,11.70
2022-11-12T16:16:33.513Z,10.10
2022-11-12T16:19:21.686Z,27.65
2022-11-12T16:22:12.872Z,30.30
2022-11-12T16:25:01.096Z,34.15
2022-11-12T16:27:51.477Z,33.10
2022-11-12T16:30:41.581Z,24.40
2022-11-12T16:33:29.439Z,16.92
2022-11-12T16:36:17.964Z,16.45
2022-11-12T16:39:04.295Z,15.88
2022-11-12T16:41:50.853Z,12.85
2022-11-12T16:44:37.489Z,12.45
2022-11-12T16:47:23.749Z,10.32
2022-11-12T16:50:14.690Z,14.30
2022-11-12T16:58:40.581Z,13.10
2022-11-12T17:01:28.266Z,14.63
2022-11-12T17:04:15.237Z,14.65
2022-11-12T17:07:06.968Z,12.85
2022-11-12T17:09:53.766Z,17.27
2022-11-12T17:12:40.253Z,12.70
2022-11-12T17:15:26.868Z,13.82
2022-11-12T17:18:12.789Z,19.05
2022-11-12T17:21:07.518Z,22.20
2022-11-12T17:23:55.423Z,24.23
2022-11-12T17:26:41.821Z,25.77
2022-11-12T17:29:28.615Z,19.98
2022-11-12T17:32:14.828Z,16.67
2022-11-12T17:35:11.431Z,21.58
2022-11-12T17:37:57.547Z,19.23
2022-11-12T17:40:43.875Z,17.55
2022-11-12T17:43:31.365Z,16.33
2022-11-12T17:46:17.942Z,16.63
2022-11-12T17:49:04.106Z,8.48
2022-11-12T17:51:50.293Z,9.38
2022-11-12T17:54:36.946Z,8.65
2022-11-12T17:57:26.385Z,19.95
2022-11-12T18:00:14.391Z,16.52
2022-11-12T18:03:04.395Z,15.20
2022-11-12T18:05:58.593Z,15.90
2022-11-12T18:08:48.291Z,11.13
2022-11-12T18:11:49.271Z,11.00
2022-11-12T18:14:36.611Z,13.85
2022-11-12T18:17:25.908Z,13.43
2022-11-12T18:20:12.902Z,9.48
2022-11-12T18:23:00.633Z,16.05
2022-11-12T18:25:47.494Z,25.33
2022-11-12T18:28:34.437Z,37.13
2022-11-12T18:31:21.114Z,25.52
2022-11-12T18:34:07.270Z,17.95
2022-11-12T18:36:54.211Z,16.95
2022-11-12T18:39:40.476Z,16.42
2022-11-12T18:42:27.733Z,19.48
2022-11-12T18:45:14.309Z,14.20
2022-11-12T18:48:04.912Z,15.98
2022-11-12T18:53:40.945Z,9.80
2022-11-12T18:56:32.854Z,12.07
2022-11-12T18:59:19.308Z,12.73
2022-11-12T19:02:06.011Z,9.93
2022-11-12T19:04:52.411Z,12.18
2022-11-12T19:07:39.532Z,10.95
2022-11-12T19:10:26.002Z,12.75
2022-11-12T19:13:13.514Z,14.10
2022-11-12T19:16:05.814Z,13.27
2022-11-12T19:18:52.722Z,18.08
2022-11-12T19:21:39.072Z,16.25
2022-11-12T19:24:25.163Z,17.10
2022-11-12T19:27:11.417Z,9.95
2022-11-12T19:30:02.606Z,19.73
2022-11-12T19:32:49.734Z,25.88
2022-11-12T19:35:36.256Z,31.02
2022-11-12T19:38:23.887Z,40.17
2022-11-12T19:41:17.704Z,43.90
2022-11-12T19:44:11.499Z,39.85
2022-11-12T19:46:58.103Z,56.05
2022-11-12T19:49:44.488Z,66.47
2022-11-12T19:52:34.078Z,67.65
2022-11-12T19:55:20.276Z,49.63
2022-11-12T19:58:07.288Z,41.13
2022-11-12T20:00:53.788Z,36.60
2022-11-12T20:03:40.437Z,40.30
2022-11-12T20:06:27.286Z,57.47
2022-11-12T20:09:14.210Z,51.60
2022-11-12T20:12:00.482Z,67.28
2022-11-12T20:14:47.682Z,49.88
2022-11-12T20:17:34.595Z,54.92
2022-11-12T20:20:21.259Z,62.95
2022-11-12T20:23:07.598Z,65.15
2022-11-12T20:25:55.153Z,75.43
2022-11-12T20:28:42.165Z,108.15
2022-11-12T20:31:28.307Z,120.80
2022-11-12T20:34:15.666Z,112.72
2022-11-12T20:37:04.964Z,135.77
2022-11-12T20:39:51.262Z,98.45
2022-11-12T20:42:37.461Z,95.47
2022-11-12T20:45:24.051Z,106.18
2022-11-12T20:48:10.908Z,99.63
2022-11-12T20:51:25.483Z,84.78
2022-11-12T20:54:12.825Z,89.47
2022-11-12T20:57:02.368Z,77.45
2022-11-12T21:00:13.575Z,82.82
2022-11-12T21:03:03.627Z,65.82
2022-11-12T21:05:57.937Z,60.00
2022-11-12T21:08:45.177Z,59.70
2022-11-12T21:11:32.227Z,50.45
2022-11-12T21:14:19.043Z,52.17
2022-11-12T21:17:05.231Z,53.90
2022-11-12T21:19:51.418Z,49.90
2022-11-12T21:22:37.520Z,46.80
2022-11-12T21:25:24.100Z,40.08
2022-11-12T21:28:10.281Z,34.13
2022-11-12T21:31:04.235Z,32.38
2022-11-12T21:33:51.580Z,30.17
2022-11-12T21:36:38.305Z,26.42
2022-11-12T21:39:25.204Z,21.98
2022-11-12T21:42:12.361Z,25.10
2022-11-12T21:45:04.004Z,25.08
2022-11-12T21:47:52.281Z,22.98
2022-11-12T21:50:39.416Z,29.58
2022-11-12T21:53:25.933Z,34.40
2022-11-12T21:56:15.550Z,30.98
2022-11-12T21:59:05.103Z,28.75
2022-11-12T22:01:51.437Z,25.80
2022-11-12T22:04:39.238Z,28.23
2022-11-12T22:07:35.738Z,28.75
2022-11-12T22:10:21.737Z,36.67
2022-11-12T22:16:25.176Z,34.95
2022-11-12T22:19:14.282Z,35.88
2022-11-12T22:22:07.534Z,33.63
2022-11-12T22:24:54.216Z,31.90
2022-11-12T22:27:40.453Z,36.47
2022-11-12T22:30:26.508Z,29.90
2022-11-12T22:33:13.310Z,28.08
2022-11-12T22:36:07.687Z,33.45
2022-11-12T22:38:55.955Z,25.25
2022-11-12T22:41:47.473Z,25.98
2022-11-12T22:44:34.143Z,23.42
2022-11-12T22:47:20.480Z,19.30
2022-11-12T22:50:06.812Z,23.02
2022-11-12T22:52:53.401Z,15.60
2022-11-12T22:55:39.567Z,20.08
2022-11-12T22:58:26.141Z,25.77
2022-11-12T23:01:27.152Z,24.25
2022-11-12T23:04:15.531Z,29.58
2022-11-12T23:07:02.922Z,32.08
2022-11-12T23:09:49.097Z,25.85
2022-11-12T23:12:35.075Z,27.17
2022-11-12T23:15:21.574Z,22.23
2022-11-12T23:18:07.613Z,21.30
2022-11-12T23:20:54.347Z,25.08
2022-11-12T23:23:40.778Z,24.60
2022-11-12T23:26:28.893Z,23.27
2022-11-12T23:29:14.619Z,19.30
2022-11-12T23:32:01.728Z,22.13
2022-11-12T23:34:47.872Z,22.00
2022-11-12T23:37:34.365Z,22.38
2022-11-12T23:40:20.205Z,19.88
2022-11-12T23:43:06.489Z,19.17
2022-11-12T23:45:52.856Z,20.50
2022-11-12T23:48:39.061Z,24.30
2022-11-12T23:51:25.211Z,19.88
2022-11-12T23:54:16.926Z,24.15
2022-11-12T23:57:03.677Z,24.20
2022-11-12T23:59:49.841Z,29.08
